Rechercher aéroport 
image banner adimage banner adimage banner ad
image banner ad

0CA4 - Shepherd Ranch

Situé à Santa Ynez, United States

ICAO - 0CA4, IATA -

Données fournies par Airmate  

Information générale

Coordonnées: N34°37'20" W120°3'56"
Élévation : 660 feet MSL.
Variation magnétique : 14° East
Voir autres Aéroports à California

Données opérationnelles

Special qualification required
Heure actuelle UTC:
Heure actuelle locale:
Météo à : KIZA - Santa Ynez ( 2 km )
METAR: KIZA 251115Z AUTO 00000KT 5SM BR OVC002 12/11 A2997 RMK AO2
Voir NOTAMs / SUP AIP / TFR affectant cet aéroport [VIEW]
Fréquences de communication: [VIEW]

Pistes:

Identifiant RWYQFULongueur (ft)Largeur (ft)SurfaceLDA (ft)
06360050BITUM
24360050BITUM

Coordonnées de l'aéroport

Adresse: Santa Ynez United States

Vue satellite de 0CA4